Time;durP1;ratioP1;P1;durP2;ratioP2;P2;SDS_P1;SDS_P2;PMS_P1;PMS_P2;Temp;Humidity;BMP_temperature;BMP_pressure;BME280_temperature;BME280_humidity;BME280_pressure;Samples;Min_cycle;Max_cycle;Signal;HPM_P1;HPM_P2
2023/03/17 00:01:04;;;;;;;9.20;6.50;;;;;;;0.41;69.38;99953.75;6278395;22;20171;-79
2023/03/17 00:03:34;;;;;;;8.97;6.83;;;;;;;0.49;68.67;99947.72;6279396;22;20168;-79
2023/03/17 00:06:03;;;;;;;16.67;11.40;;;;;;;0.40;68.69;99946.81;6228664;22;20170;-79
2023/03/17 00:08:34;;;;;;;13.47;9.67;;;;;;;0.35;69.35;99950.84;6255471;22;20163;-79
2023/03/17 00:11:02;;;;;;;12.67;8.33;;;;;;;0.32;69.74;99951.16;6254079;22;20184;-82
2023/03/17 00:13:30;;;;;;;9.47;7.40;;;;;;;0.26;70.39;99947.28;6287440;22;20195;-80
2023/03/17 00:16:02;;;;;;;13.53;9.73;;;;;;;0.33;70.21;99944.88;6338416;22;20193;-79
2023/03/17 00:18:30;;;;;;;16.83;12.03;;;;;;;0.27;70.18;99938.41;6285415;22;20187;-79
2023/03/17 00:21:00;;;;;;;18.20;13.10;;;;;;;0.31;69.88;99934.50;6261638;22;20474;-78
2023/03/17 00:23:29;;;;;;;15.33;11.30;;;;;;;0.35;70.16;99935.03;6286669;22;20167;-79
2023/03/17 00:25:57;;;;;;;13.87;9.50;;;;;;;0.33;69.70;99931.69;6285910;22;20605;-80
2023/03/17 00:28:26;;;;;;;10.53;7.67;;;;;;;0.36;69.72;99929.63;6339077;22;20155;-79
2023/03/17 00:30:59;;;;;;;8.83;7.07;;;;;;;0.41;69.59;99924.75;6286533;22;20214;-78
2023/03/17 00:33:32;;;;;;;9.10;7.00;;;;;;;0.36;69.23;99932.25;6285619;22;20163;-78
2023/03/17 00:36:08;;;;;;;14.83;10.60;;;;;;;0.34;69.74;99925.47;6313407;22;20509;-80
2023/03/17 00:38:37;;;;;;;9.90;7.97;;;;;;;0.41;70.16;99921.28;6339731;22;20147;-80
2023/03/17 00:41:08;;;;;;;13.00;9.70;;;;;;;0.37;70.07;99904.09;6312411;22;20577;-79
2023/03/17 00:43:35;;;;;;;11.67;7.90;;;;;;;0.39;69.72;99892.41;6338988;22;20189;-81
2023/03/17 00:46:09;;;;;;;13.87;9.80;;;;;;;0.30;70.03;99893.31;6286511;22;20594;-79
2023/03/17 00:48:40;;;;;;;16.67;11.20;;;;;;;0.22;70.48;99897.66;6286703;22;20196;-79
2023/03/17 00:51:11;;;;;;;14.97;10.80;;;;;;;0.20;70.88;99895.16;6288258;22;20263;-80
2023/03/17 00:53:42;;;;;;;11.97;8.73;;;;;;;0.30;70.47;99900.38;6340204;22;20163;-78
2023/03/17 00:56:17;;;;;;;13.57;9.57;;;;;;;0.22;70.67;99898.50;6312920;22;20170;-79
2023/03/17 00:58:44;;;;;;;11.00;8.70;;;;;;;0.27;70.48;99903.31;6314020;22;20177;-78
2023/03/17 01:01:17;;;;;;;12.83;9.40;;;;;;;0.17;70.60;99886.72;6340972;22;20182;-78
2023/03/17 01:03:51;;;;;;;12.77;8.93;;;;;;;0.12;70.97;99881.91;6313551;22;20190;-79
2023/03/17 01:06:21;;;;;;;12.80;9.33;;;;;;;0.08;71.93;99871.81;6314573;22;20158;-79
2023/03/17 01:08:52;;;;;;;9.00;7.43;;;;;;;0.11;71.88;99874.13;6290520;22;20163;-81
2023/03/17 01:11:20;;;;;;;10.67;7.30;;;;;;;0.10;71.89;99864.56;6316476;22;20187;-79
2023/03/17 01:13:47;;;;;;;9.43;7.83;;;;;;;0.20;71.37;99860.91;6279998;22;20195;-82
2023/03/17 01:16:14;;;;;;;7.97;6.17;;;;;;;0.27;71.36;99866.44;6309724;22;20160;-79
2023/03/17 01:18:42;;;;;;;6.50;4.90;;;;;;;0.36;70.42;99845.28;6280904;22;20160;-80
2023/03/17 01:21:11;;;;;;;7.80;5.03;;;;;;;0.48;69.72;99845.03;6279911;22;20172;-80
2023/03/17 01:23:43;;;;;;;5.70;4.17;;;;;;;0.63;69.33;99833.84;6281276;22;20164;-79
2023/03/17 01:26:10;;;;;;;6.23;3.63;;;;;;;0.77;68.64;99828.03;6307838;22;20190;-78
2023/03/17 01:28:38;;;;;;;7.97;3.40;;;;;;;0.91;68.02;99826.66;6230018;22;20167;-81
2023/03/17 01:31:06;;;;;;;5.60;3.10;;;;;;;1.00;67.41;99824.91;6307660;22;20175;-79
2023/03/17 01:33:35;;;;;;;4.13;2.67;;;;;;;1.16;66.89;99820.59;6280589;22;20676;-79
2023/03/17 01:36:02;;;;;;;3.90;2.90;;;;;;;1.28;66.55;99818.50;6280098;22;20621;-80
2023/03/17 01:38:32;;;;;;;4.00;2.37;;;;;;;1.50;65.63;99812.69;6307060;22;20152;-79
2023/03/17 01:41:00;;;;;;;3.60;2.40;;;;;;;1.65;64.87;99821.69;6307398;22;20660;-79
2023/03/17 01:43:28;;;;;;;3.10;2.50;;;;;;;1.90;64.16;99811.22;6279823;22;20164;-80
2023/03/17 01:46:26;;;;;;;4.03;2.53;;;;;;;2.13;63.08;99809.63;6307550;22;20172;-79
2023/03/17 01:49:18;;;;;;;3.03;2.60;;;;;;;2.24;62.94;99809.31;6307668;22;20225;-80
2023/03/17 01:52:09;;;;;;;5.83;2.97;;;;;;;2.46;62.23;99803.44;6307671;22;20168;-81
2023/03/17 01:54:41;;;;;;;5.20;2.60;;;;;;;2.55;62.41;99804.25;6307725;22;20194;-80
2023/03/17 01:57:22;;;;;;;3.07;2.53;;;;;;;2.68;61.55;99804.59;6255227;22;20201;-81
2023/03/17 02:00:06;;;;;;;3.57;2.50;;;;;;;2.80;60.93;99800.63;6230230;22;20164;-79
2023/03/17 02:02:42;;;;;;;4.40;2.60;;;;;;;2.99;60.48;99794.97;6307146;22;20180;-78
2023/03/17 02:05:15;;;;;;;3.80;2.47;;;;;;;2.99;59.82;99794.16;6229530;22;20179;-79
2023/03/17 02:07:45;;;;;;;3.17;2.27;;;;;;;3.12;59.64;99785.72;6307280;22;20144;-80
2023/03/17 02:10:16;;;;;;;5.43;2.73;;;;;;;3.19;58.97;99776.94;6255486;22;20229;-80
2023/03/17 02:12:46;;;;;;;3.90;2.47;;;;;;;3.21;59.17;99788.19;6280322;22;20168;-81
2023/03/17 02:15:14;;;;;;;3.10;2.37;;;;;;;3.28;59.05;99788.31;6254793;22;20218;-78
2023/03/17 02:17:41;;;;;;;4.20;2.90;;;;;;;3.38;58.41;99784.50;6307590;22;20190;-81
2023/03/17 02:20:31;;;;;;;4.23;2.47;;;;;;;3.43;58.22;99782.16;6280299;22;20257;-80
2023/03/17 02:22:59;;;;;;;3.40;2.47;;;;;;;3.47;58.13;99777.34;6280242;22;20613;-79
2023/03/17 02:25:29;;;;;;;4.50;2.60;;;;;;;3.67;57.64;99768.00;6280492;22;20210;-80
2023/03/17 02:28:13;;;;;;;3.83;2.40;;;;;;;3.70;57.17;99756.22;6280564;22;20170;-78
2023/03/17 02:30:42;;;;;;;5.30;2.60;;;;;;;3.74;57.27;99757.53;6229950;22;20156;-78
2023/03/17 02:33:10;;;;;;;4.30;2.70;;;;;;;3.68;56.97;99759.06;6254390;22;20195;-78
2023/03/17 02:35:41;;;;;;;3.80;2.70;;;;;;;3.76;56.86;99764.34;6306788;22;20154;-79
2023/03/17 02:38:10;;;;;;;4.40;2.47;;;;;;;3.71;57.03;99760.53;6255975;22;20683;-80
2023/03/17 02:40:40;;;;;;;3.97;2.87;;;;;;;3.72;56.82;99759.56;6279701;22;20222;-81
2023/03/17 02:43:09;;;;;;;3.40;2.50;;;;;;;3.82;56.49;99758.34;6306993;22;20229;-79
2023/03/17 02:45:36;;;;;;;4.33;2.93;;;;;;;3.79;56.56;99774.56;6254379;22;20701;-81
2023/03/17 02:48:12;;;;;;;3.70;2.80;;;;;;;3.75;56.65;99767.13;6255947;22;20598;-80
2023/03/17 02:50:41;;;;;;;5.07;2.57;;;;;;;3.84;56.37;99758.16;6281075;22;20187;-78
2023/03/17 02:53:10;;;;;;;3.37;2.40;;;;;;;3.82;56.03;99762.81;6306913;22;20209;-79
2023/03/17 02:55:40;;;;;;;3.83;3.00;;;;;;;3.91;55.93;99762.59;6255249;22;20159;-78
2023/03/17 02:58:09;;;;;;;3.77;2.53;;;;;;;3.94;55.84;99758.78;6280222;22;20164;-78
2023/03/17 03:00:40;;;;;;;4.60;2.63;;;;;;;3.90;55.85;99762.78;6280196;22;20156;-79
2023/03/17 03:03:08;;;;;;;4.77;2.67;;;;;;;3.93;55.83;99757.94;6306890;22;20195;-80
2023/03/17 03:05:36;;;;;;;3.23;2.70;;;;;;;3.98;55.89;99750.28;6280432;22;20160;-80
2023/03/17 03:08:03;;;;;;;4.90;2.70;;;;;;;4.02;55.37;99749.94;6306794;22;20156;-79
2023/03/17 03:10:29;;;;;;;4.83;2.43;;;;;;;4.06;55.22;99754.72;6307171;22;20167;-79
2023/03/17 03:12:56;;;;;;;5.83;3.00;;;;;;;4.12;55.03;99755.84;6279776;22;20171;-81
2023/03/17 03:15:23;;;;;;;4.10;2.80;;;;;;;4.12;54.78;99755.84;6307267;22;20503;-80
2023/03/17 03:17:55;;;;;;;4.07;2.70;;;;;;;4.16;54.81;99754.50;6306642;22;20160;-78
2023/03/17 03:20:24;;;;;;;3.63;2.73;;;;;;;4.12;54.83;99746.06;6279413;22;20178;-78
2023/03/17 03:22:54;;;;;;;4.60;2.77;;;;;;;4.18;54.95;99750.69;6306918;22;20163;-79
2023/03/17 03:25:23;;;;;;;6.33;2.70;;;;;;;4.06;55.04;99749.41;6307063;22;20183;-80
2023/03/17 03:27:52;;;;;;;4.47;2.53;;;;;;;4.20;54.90;99742.56;6255169;22;20158;-79
2023/03/17 03:30:22;;;;;;;4.90;2.80;;;;;;;4.10;55.04;99748.09;6254660;22;20168;-80
2023/03/17 03:32:51;;;;;;;3.60;2.47;;;;;;;3.95;55.68;99755.97;6306415;22;20180;-82
2023/03/17 03:35:18;;;;;;;4.53;2.63;;;;;;;3.92;56.28;99750.97;6306487;22;20166;-79
2023/03/17 03:37:45;;;;;;;3.70;2.50;;;;;;;3.69;56.53;99750.09;6280125;22;20221;-79
2023/03/17 03:40:12;;;;;;;3.80;2.80;;;;;;;3.68;56.94;99759.06;6254369;22;20167;-79
2023/03/17 03:42:41;;;;;;;5.77;2.80;;;;;;;3.53;57.10;99740.41;6279428;22;20226;-80
2023/03/17 03:45:12;;;;;;;4.00;2.70;;;;;;;3.35;57.40;99745.13;6279499;22;20164;-79
2023/03/17 03:47:40;;;;;;;4.53;2.70;;;;;;;3.38;57.74;99746.59;6306063;22;20217;-81
2023/03/17 03:50:10;;;;;;;4.67;2.80;;;;;;;3.38;57.63;99736.81;6280250;22;20821;-79
2023/03/17 03:52:37;;;;;;;4.40;2.93;;;;;;;3.29;57.86;99737.03;6253730;22;20229;-80
2023/03/17 03:55:05;;;;;;;6.33;2.80;;;;;;;3.16;58.21;99736.72;6279651;22;20160;-81
2023/03/17 03:57:32;;;;;;;4.50;2.80;;;;;;;3.17;58.07;99738.38;6228630;22;20632;-79
2023/03/17 04:00:06;;;;;;;4.43;2.83;;;;;;;3.05;58.30;99733.44;6254185;22;20164;-79
2023/03/17 04:02:40;;;;;;;6.30;3.10;;;;;;;2.97;58.85;99725.53;6280649;22;20222;-80
2023/03/17 04:05:10;;;;;;;6.67;2.87;;;;;;;2.89;59.18;99714.13;6279583;22;20163;-80
2023/03/17 04:07:36;;;;;;;3.43;2.63;;;;;;;2.91;58.98;99714.78;6305908;22;20685;-79
2023/03/17 04:10:07;;;;;;;3.00;2.60;;;;;;;2.93;58.85;99723.38;6254136;22;20183;-79
2023/03/17 04:12:35;;;;;;;5.57;2.90;;;;;;;2.95;58.92;99722.22;6279089;22;20222;-80
2023/03/17 04:15:05;;;;;;;4.10;2.90;;;;;;;2.94;58.71;99720.56;6280855;22;20194;-80
2023/03/17 04:17:32;;;;;;;5.03;2.47;;;;;;;3.00;58.43;99727.81;6309808;22;20217;-80
2023/03/17 04:20:01;;;;;;;5.03;2.50;;;;;;;3.15;57.46;99720.03;6309932;22;20170;-80
2023/03/17 04:22:31;;;;;;;3.77;2.73;;;;;;;3.44;56.47;99719.44;6337604;22;20245;-80
2023/03/17 04:24:58;;;;;;;5.20;2.83;;;;;;;3.56;56.22;99707.44;6337538;22;20163;-80
2023/03/17 04:27:27;;;;;;;6.43;2.97;;;;;;;3.73;55.82;99716.16;6310110;22;20163;-80
2023/03/17 04:29:58;;;;;;;2.97;2.37;;;;;;;3.88;55.48;99704.63;6311063;22;20143;-82
2023/03/17 04:32:25;;;;;;;5.20;3.00;;;;;;;3.91;55.38;99701.63;6284521;22;20193;-80
2023/03/17 04:34:56;;;;;;;3.90;2.50;;;;;;;3.94;55.11;99714.53;6309784;22;20167;-81
2023/03/17 04:37:24;;;;;;;3.77;2.80;;;;;;;4.09;54.84;99721.75;6310618;22;20170;-79
2023/03/17 04:39:51;;;;;;;4.17;2.53;;;;;;;4.01;55.01;99713.84;6258462;22;20218;-80
2023/03/17 04:42:20;;;;;;;4.23;2.70;;;;;;;4.20;54.51;99724.00;6284161;22;20240;-79
2023/03/17 04:44:46;;;;;;;6.27;2.90;;;;;;;4.17;54.56;99716.38;6297337;22;20246;-78
2023/03/17 04:47:13;;;;;;;6.57;2.93;;;;;;;4.28;54.43;99715.97;6284142;22;20241;-79
2023/03/17 04:49:40;;;;;;;5.63;2.80;;;;;;;4.32;54.12;99709.31;6309702;22;20159;-80
2023/03/17 04:52:09;;;;;;;4.47;2.63;;;;;;;4.41;53.75;99705.59;6310255;22;20186;-80
2023/03/17 04:54:36;;;;;;;4.33;2.77;;;;;;;4.45;53.82;99706.88;6259126;22;20194;-79
2023/03/17 04:57:05;;;;;;;4.80;2.60;;;;;;;4.48;53.76;99706.50;6310131;22;20776;-79
2023/03/17 04:59:38;;;;;;;4.80;2.80;;;;;;;4.54;53.55;99712.94;6309982;22;20190;-82
2023/03/17 05:02:09;;;;;;;5.13;3.10;;;;;;;4.51;53.79;99711.47;6337427;22;20179;-79
2023/03/17 05:04:40;;;;;;;5.20;3.03;;;;;;;4.50;53.64;99712.47;6286279;22;20160;-81
2023/03/17 05:07:13;;;;;;;3.40;2.50;;;;;;;4.48;53.80;99706.50;6337916;22;20541;-78
2023/03/17 05:09:43;;;;;;;4.97;3.17;;;;;;;4.55;53.29;99715.41;6311059;22;20148;-80
2023/03/17 05:12:15;;;;;;;4.30;2.93;;;;;;;4.59;53.23;99710.56;6311849;22;20171;-81
2023/03/17 05:14:59;;;;;;;4.43;3.17;;;;;;;4.60;53.26;99706.91;6312837;22;20186;-79
2023/03/17 05:17:26;;;;;;;4.70;3.33;;;;;;;4.68;53.16;99699.72;6284299;22;20182;-80
2023/03/17 05:19:53;;;;;;;4.13;3.00;;;;;;;4.70;53.34;99712.81;6337401;22;20159;-79
2023/03/17 05:22:23;;;;;;;5.50;3.13;;;;;;;4.71;53.32;99711.81;6310736;22;20230;-79
2023/03/17 05:24:52;;;;;;;4.20;3.00;;;;;;;4.80;53.23;99706.25;6337053;22;20159;-80
2023/03/17 05:27:20;;;;;;;4.63;2.97;;;;;;;4.85;52.69;99703.06;6283784;22;20206;-79
2023/03/17 05:29:52;;;;;;;5.77;2.83;;;;;;;4.85;53.12;99701.19;6299609;22;20155;-79
2023/03/17 05:32:18;;;;;;;4.10;3.13;;;;;;;4.99;53.08;99701.41;6309538;22;20187;-79
2023/03/17 05:34:48;;;;;;;5.30;3.37;;;;;;;4.97;53.11;99703.41;6309599;22;20160;-80
2023/03/17 05:37:17;;;;;;;5.60;2.90;;;;;;;5.03;52.65;99708.00;6285074;22;20163;-79
2023/03/17 05:39:49;;;;;;;5.70;3.10;;;;;;;5.04;52.65;99712.31;6337060;22;20166;-80
2023/03/17 05:42:15;;;;;;;6.80;3.20;;;;;;;5.21;52.36;99703.16;6336942;22;20148;-79
2023/03/17 05:44:43;;;;;;;4.33;3.10;;;;;;;5.37;52.36;99715.41;6337446;22;20652;-80
2023/03/17 05:47:11;;;;;;;4.80;3.30;;;;;;;5.33;52.50;99709.66;6337255;22;20238;-80
2023/03/17 05:49:40;;;;;;;4.50;3.10;;;;;;;5.41;51.93;99706.09;6284812;22;20198;-79
2023/03/17 05:52:07;;;;;;;6.03;3.43;;;;;;;5.54;51.89;99712.41;6336919;22;20265;-80
2023/03/17 05:54:35;;;;;;;5.07;2.83;;;;;;;5.64;51.60;99714.75;6284180;22;20247;-79
2023/03/17 05:57:03;;;;;;;6.03;3.03;;;;;;;5.74;51.64;99715.28;6339112;22;20179;-79
2023/03/17 05:59:33;;;;;;;4.60;2.90;;;;;;;5.67;51.39;99707.25;6338923;22;20163;-82
2023/03/17 06:02:00;;;;;;;5.00;3.23;;;;;;;5.80;51.23;99717.19;6338670;22;20218;-79
2023/03/17 06:04:34;;;;;;;6.67;3.20;;;;;;;5.92;51.13;99718.41;6311700;22;20951;-80
2023/03/17 06:07:01;;;;;;;4.30;3.53;;;;;;;6.02;50.62;99710.94;6286722;22;20151;-80
2023/03/17 06:09:28;;;;;;;5.00;3.10;;;;;;;6.06;51.17;99717.53;6285951;22;20679;-79
2023/03/17 06:11:59;;;;;;;5.50;3.20;;;;;;;6.18;50.74;99715.19;6311599;22;20186;-80
2023/03/17 06:14:26;;;;;;;5.10;3.33;;;;;;;6.27;50.57;99707.91;6310656;22;20226;-80
2023/03/17 06:16:53;;;;;;;5.07;3.20;;;;;;;6.26;51.10;99711.56;6285330;22;20174;-79
2023/03/17 06:19:24;;;;;;;4.77;3.23;;;;;;;6.33;50.54;99705.31;6337988;22;20179;-80
2023/03/17 06:21:52;;;;;;;6.23;3.33;;;;;;;6.36;50.07;99704.09;6311475;22;20155;-78
2023/03/17 06:24:20;;;;;;;7.33;3.43;;;;;;;6.34;49.55;99706.97;6284529;22;20187;-80
2023/03/17 06:26:51;;;;;;;5.57;3.40;;;;;;;6.25;49.59;99705.47;6311487;22;20232;-79
2023/03/17 06:29:18;;;;;;;6.80;3.30;;;;;;;6.36;49.75;99701.44;6285003;22;20171;-80
2023/03/17 06:31:49;;;;;;;7.93;3.30;;;;;;;6.45;49.73;99702.97;6338261;22;20190;-81
2023/03/17 06:34:22;;;;;;;5.90;3.23;;;;;;;6.48;49.42;99710.59;6286152;22;20163;-80
2023/03/17 06:36:52;;;;;;;5.13;3.03;;;;;;;6.44;49.65;99710.13;6285124;22;20156;-80
2023/03/17 06:39:19;;;;;;;5.80;3.30;;;;;;;6.56;49.14;99705.94;6311397;22;20222;-79
2023/03/17 06:41:48;;;;;;;5.53;3.37;;;;;;;6.48;49.22;99703.44;6273570;22;20608;-79
2023/03/17 06:44:14;;;;;;;5.27;3.27;;;;;;;6.62;48.79;99707.81;6285017;22;20216;-78
2023/03/17 06:46:43;;;;;;;4.47;3.20;;;;;;;6.60;48.74;99703.72;6285202;22;20159;-79
2023/03/17 06:49:15;;;;;;;6.03;3.40;;;;;;;6.64;49.21;99708.47;6338252;22;20156;-79
2023/03/17 06:51:42;;;;;;;5.03;3.30;;;;;;;6.63;48.84;99703.31;6310776;22;20151;-79
2023/03/17 06:54:09;;;;;;;6.07;3.70;;;;;;;6.71;48.78;99707.69;6310657;22;20201;-80
2023/03/17 06:56:38;;;;;;;4.70;3.43;;;;;;;6.81;48.48;99718.84;6259822;22;20201;-79
2023/03/17 06:59:05;;;;;;;6.17;3.20;;;;;;;6.90;48.87;99715.84;6338376;22;20251;-79
2023/03/17 07:01:34;;;;;;;5.03;3.53;;;;;;;6.97;48.50;99706.06;6310674;22;20251;-81
2023/03/17 07:04:04;;;;;;;5.07;3.60;;;;;;;6.96;48.72;99719.56;6311267;22;20633;-82
2023/03/17 07:06:32;;;;;;;6.83;4.00;;;;;;;7.05;48.37;99710.41;6338476;22;20167;-78
2023/03/17 07:08:59;;;;;;;5.83;3.80;;;;;;;7.12;48.42;99710.44;6338471;22;20167;-79
2023/03/17 07:11:29;;;;;;;5.60;4.20;;;;;;;7.31;48.77;99715.91;6338703;22;20181;-79
2023/03/17 07:13:56;;;;;;;8.30;4.40;;;;;;;7.45;47.83;99714.13;6279510;22;20256;-79
2023/03/17 07:16:24;;;;;;;5.77;4.13;;;;;;;7.58;47.92;99714.19;6279424;22;20246;-79
2023/03/17 07:18:53;;;;;;;4.43;3.40;;;;;;;7.73;47.30;99708.72;6307287;22;20170;-79
2023/03/17 07:21:25;;;;;;;5.93;3.20;;;;;;;7.83;47.12;99704.66;6279693;22;20175;-80
2023/03/17 07:23:54;;;;;;;5.57;3.97;;;;;;;7.95;47.10;99705.72;6280448;22;20217;-79
2023/03/17 07:26:21;;;;;;;5.17;3.50;;;;;;;8.13;46.64;99710.47;6305545;22;20618;-79
2023/03/17 07:28:49;;;;;;;7.23;3.33;;;;;;;8.17;46.09;99708.22;6228952;22;20193;-78
2023/03/17 07:31:22;;;;;;;6.60;3.47;;;;;;;8.23;46.37;99718.09;6307377;22;20140;-78
2023/03/17 07:33:48;;;;;;;6.67;3.90;;;;;;;8.35;45.74;99721.88;6279508;22;20226;-79
2023/03/17 07:36:18;;;;;;;7.37;3.50;;;;;;;8.49;46.08;99706.69;6280890;22;20199;-78
2023/03/17 07:38:47;;;;;;;6.23;3.80;;;;;;;8.53;46.13;99716.75;6254456;22;20167;-81
2023/03/17 07:41:18;;;;;;;5.97;3.40;;;;;;;8.68;45.92;99712.03;6254540;22;20535;-79
2023/03/17 07:43:49;;;;;;;5.10;3.03;;;;;;;8.79;45.24;99713.25;6279694;22;20234;-79
2023/03/17 07:46:20;;;;;;;5.63;3.67;;;;;;;8.90;44.83;99707.31;6280544;22;20238;-79
2023/03/17 07:48:56;;;;;;;3.93;3.40;;;;;;;8.97;44.56;99694.75;6268648;22;20172;-78
2023/03/17 07:51:26;;;;;;;4.73;3.40;;;;;;;8.92;44.18;99694.53;6306810;22;20202;-79
2023/03/17 07:54:02;;;;;;;8.17;4.37;;;;;;;9.16;44.34;99690.41;6255519;22;20198;-80
2023/03/17 07:56:30;;;;;;;5.73;3.37;;;;;;;9.37;43.72;99694.69;6307107;22;20152;-80
2023/03/17 07:58:57;;;;;;;5.53;4.00;;;;;;;9.47;43.73;99690.50;6305746;22;20160;-79
2023/03/17 08:01:25;;;;;;;5.17;2.90;;;;;;;9.42;42.63;99694.88;6279787;22;20526;-81
2023/03/17 08:03:56;;;;;;;4.23;3.40;;;;;;;9.55;42.80;99684.94;6279754;22;20187;-80
2023/03/17 08:06:26;;;;;;;5.87;3.43;;;;;;;9.77;43.15;99690.81;6306994;22;20243;-80
2023/03/17 08:08:57;;;;;;;4.87;3.60;;;;;;;9.77;41.78;99684.66;6257215;22;20148;-80
2023/03/17 08:11:24;;;;;;;9.57;6.97;;;;;;;10.01;41.71;99700.78;6280034;22;20491;-79
2023/03/17 08:13:54;;;;;;;5.20;3.17;;;;;;;10.15;41.06;99689.00;6253952;22;20207;-79
2023/03/17 08:16:22;;;;;;;4.93;2.83;;;;;;;10.26;40.82;99690.19;6280790;22;20161;-79
2023/03/17 08:18:49;;;;;;;6.07;4.20;;;;;;;10.21;40.54;99679.31;6306905;22;20159;-78
2023/03/17 08:21:25;;;;;;;4.47;3.03;;;;;;;10.32;40.28;99677.75;6254026;22;20172;-78
2023/03/17 08:23:53;;;;;;;4.60;2.90;;;;;;;10.30;39.81;99678.00;6279593;22;20170;-79
2023/03/17 08:26:23;;;;;;;6.50;3.03;;;;;;;10.54;40.12;99671.03;6253173;22;20673;-79
2023/03/17 08:28:58;;;;;;;4.90;2.60;;;;;;;10.70;39.47;99683.03;6253716;22;20243;-79
2023/03/17 08:31:32;;;;;;;3.43;2.73;;;;;;;10.78;38.83;99670.19;6279532;22;20612;-79
2023/03/17 08:34:04;;;;;;;3.20;2.70;;;;;;;10.77;38.68;99679.28;6230352;22;20282;-79
2023/03/17 08:36:31;;;;;;;3.47;2.53;;;;;;;10.74;38.36;99685.06;6253757;22;20174;-80
2023/03/17 08:39:00;;;;;;;4.70;2.60;;;;;;;10.77;38.37;99676.59;6307085;22;20156;-78
2023/03/17 08:41:28;;;;;;;3.53;2.63;;;;;;;10.84;38.01;99679.22;6254154;22;20202;-78
2023/03/17 08:43:57;;;;;;;3.83;2.80;;;;;;;10.85;37.58;99679.00;6253908;22;20246;-78
2023/03/17 08:46:33;;;;;;;2.83;2.53;;;;;;;10.99;37.48;99677.00;6229885;22;20163;-79
2023/03/17 08:49:03;;;;;;;3.10;2.80;;;;;;;11.24;37.58;99679.66;6280657;22;20155;-79
2023/03/17 08:51:35;;;;;;;7.50;3.43;;;;;;;11.36;37.33;99680.56;6278640;22;20164;-79
2023/03/17 08:54:07;;;;;;;5.23;2.80;;;;;;;11.44;37.21;99662.28;6278247;22;20274;-81
2023/03/17 08:56:36;;;;;;;4.23;2.50;;;;;;;11.72;36.68;99677.88;6305893;22;20519;-80
2023/03/17 08:59:07;;;;;;;4.97;2.33;;;;;;;11.79;35.79;99672.44;6279857;22;20156;-79
2023/03/17 09:01:34;;;;;;;3.43;2.43;;;;;;;11.75;35.89;99680.13;6279796;22;20184;-78
2023/03/17 09:04:08;;;;;;;6.53;2.27;;;;;;;11.73;35.80;99658.03;6281192;22;20147;-79
2023/03/17 09:06:36;;;;;;;4.00;2.57;;;;;;;11.73;35.71;99654.53;6254012;22;20213;-79
2023/03/17 09:09:05;;;;;;;3.40;2.30;;;;;;;12.03;35.77;99663.44;6305644;22;20187;-79
2023/03/17 09:11:32;;;;;;;6.20;3.17;;;;;;;11.95;35.61;99661.06;6279224;22;20230;-80
2023/03/17 09:14:00;;;;;;;3.00;2.67;;;;;;;12.26;36.13;99660.81;6316576;22;20230;-79
2023/03/17 09:16:32;;;;;;;5.13;3.03;;;;;;;12.10;36.12;99674.88;6307789;22;20242;-79
2023/03/17 09:18:59;;;;;;;6.37;3.20;;;;;;;12.21;36.04;99684.03;6335959;22;20772;-79
2023/03/17 09:21:27;;;;;;;5.10;3.20;;;;;;;12.34;35.87;99665.84;6307938;22;20609;-80
2023/03/17 09:23:55;;;;;;;5.30;3.47;;;;;;;12.74;35.78;99675.97;6336194;22;20239;-78
2023/03/17 09:26:25;;;;;;;7.17;2.83;;;;;;;12.64;35.56;99668.50;6305403;22;20202;-80
2023/03/17 09:28:52;;;;;;;3.57;2.90;;;;;;;12.93;34.94;99682.06;6336599;22;20169;-78
2023/03/17 09:31:23;;;;;;;2.80;2.53;;;;;;;13.15;33.80;99675.91;6311206;22;20147;-80
2023/03/17 09:33:54;;;;;;;4.17;2.73;;;;;;;13.31;34.42;99685.13;6283711;22;20186;-79
2023/03/17 09:36:20;;;;;;;4.00;2.73;;;;;;;13.45;33.78;99677.59;6309769;22;20205;-78
2023/03/17 09:38:47;;;;;;;3.53;2.63;;;;;;;13.72;32.60;99667.94;6285123;22;20170;-79
2023/03/17 09:41:17;;;;;;;2.93;2.33;;;;;;;13.84;31.69;99668.72;6285282;22;20238;-79
2023/03/17 09:44:15;;;;;;;3.80;2.60;;;;;;;13.55;33.27;99667.88;6311192;22;20151;-78
2023/03/17 09:47:12;;;;;;;3.90;2.63;;;;;;;13.42;32.26;99667.31;6285767;22;20163;-79
2023/03/17 09:49:44;;;;;;;2.70;2.30;;;;;;;13.56;31.13;99660.63;6311090;22;20155;-79
2023/03/17 09:52:17;;;;;;;4.43;2.10;;;;;;;13.72;30.62;99661.75;6338251;22;20147;-79
2023/03/17 09:54:45;;;;;;;5.30;2.53;;;;;;;13.69;30.57;99657.66;6310605;22;20440;-79
2023/03/17 09:57:18;;;;;;;5.13;2.63;;;;;;;14.00;31.37;99645.59;6284022;22;20166;-78
2023/03/17 09:59:52;;;;;;;4.23;2.80;;;;;;;14.02;31.84;99655.06;6285155;22;20146;-80
2023/03/17 10:02:39;;;;;;;3.93;2.77;;;;;;;13.78;31.73;99648.13;6287456;22;20256;-78
2023/03/17 10:05:26;;;;;;;3.13;2.43;;;;;;;13.92;31.01;99649.50;6261130;22;20159;-78
2023/03/17 10:08:11;;;;;;;6.10;2.60;;;;;;;13.81;30.71;99644.97;6310976;22;20151;-79
2023/03/17 10:11:06;;;;;;;3.83;2.90;;;;;;;13.82;30.50;99641.22;6310759;22;20228;-78
2023/03/17 10:13:42;;;;;;;5.20;4.03;;;;;;;13.70;30.96;99643.16;6337979;22;20195;-77
2023/03/17 10:16:17;;;;;;;5.00;3.20;;;;;;;13.59;30.46;99630.53;6338313;22;20158;-78
2023/03/17 10:18:50;;;;;;;5.67;3.40;;;;;;;13.32;30.30;99627.56;6285445;22;20224;-79
2023/03/17 10:21:24;;;;;;;6.13;2.87;;;;;;;13.41;30.28;99636.09;6311889;22;20151;-78
2023/03/17 10:23:53;;;;;;;7.47;3.03;;;;;;;13.25;30.43;99618.78;6285867;22;20581;-80
2023/03/17 10:26:45;;;;;;;3.60;2.70;;;;;;;13.42;30.70;99624.25;6260626;22;20167;-79
2023/03/17 10:29:23;;;;;;;3.40;2.40;;;;;;;13.46;30.40;99612.78;6312553;22;20139;-78
2023/03/17 10:31:55;;;;;;;3.33;2.10;;;;;;;13.07;30.13;99610.84;6338444;22;20151;-78
2023/03/17 10:34:31;;;;;;;6.17;2.70;;;;;;;13.17;30.55;99608.41;6285979;22;20182;-79
2023/03/17 10:37:11;;;;;;;3.33;2.77;;;;;;;13.09;30.85;99614.13;6311373;22;20493;-79
2023/03/17 10:39:47;;;;;;;4.43;2.30;;;;;;;12.97;31.79;99624.88;6312072;22;20150;-78
2023/03/17 10:42:32;;;;;;;3.07;2.50;;;;;;;12.95;30.63;99613.56;6310778;22;20151;-79
2023/03/17 10:45:28;;;;;;;2.50;2.30;;;;;;;12.97;30.15;99616.81;6286293;22;20157;-79
2023/03/17 10:47:59;;;;;;;5.20;2.53;;;;;;;12.86;31.34;99612.28;6337928;22;20150;-78
2023/03/17 10:50:31;;;;;;;4.33;2.63;;;;;;;12.86;31.86;99611.44;6284470;22;20241;-79
2023/03/17 10:53:03;;;;;;;2.90;2.60;;;;;;;12.67;30.39;99600.81;6260274;22;20159;-80
2023/03/17 10:55:43;;;;;;;4.13;2.50;;;;;;;12.82;30.55;99607.59;6311324;22;20144;-78
2023/03/17 10:58:17;;;;;;;3.10;2.80;;;;;;;12.69;30.58;99601.38;6285615;22;20200;-79
2023/03/17 11:00:55;;;;;;;6.17;3.20;;;;;;;12.88;32.14;99612.06;6260133;22;20170;-78
2023/03/17 11:03:37;;;;;;;4.57;3.30;;;;;;;13.10;32.79;99602.31;6310802;22;20255;-79
2023/03/17 11:06:08;;;;;;;3.97;3.10;;;;;;;13.23;32.29;99602.91;6285499;22;20500;-79
2023/03/17 11:08:40;;;;;;;5.40;3.27;;;;;;;13.34;32.55;99601.25;6259712;22;20152;-78
2023/03/17 11:11:19;;;;;;;3.67;3.30;;;;;;;13.34;32.85;99608.50;6311055;22;20163;-80
2023/03/17 11:13:47;;;;;;;6.33;3.10;;;;;;;13.46;32.35;99609.28;6247576;22;20202;-78
2023/03/17 11:16:23;;;;;;;5.63;4.10;;;;;;;13.43;32.30;99615.97;6280495;22;20215;-78
2023/03/17 11:18:56;;;;;;;4.27;3.60;;;;;;;13.49;32.11;99600.72;6280316;22;20582;-79
2023/03/17 11:21:30;;;;;;;4.37;3.60;;;;;;;13.60;32.04;99603.38;6254965;22;20163;-79
2023/03/17 11:24:47;;;;;;;4.00;3.47;;;;;;;13.77;31.28;99599.91;6279898;22;20500;-79
2023/03/17 11:27:32;;;;;;;3.77;3.33;;;;;;;13.86;31.57;99582.28;6286054;22;20167;-80
2023/03/17 11:30:23;;;;;;;5.17;3.10;;;;;;;13.98;31.69;99588.47;6280844;22;20144;-79
2023/03/17 11:32:55;;;;;;;3.93;3.10;;;;;;;14.16;30.86;99600.88;6279440;22;20171;-78
2023/03/17 11:35:42;;;;;;;4.13;2.87;;;;;;;14.18;30.10;99594.22;6279938;22;20231;-78
2023/03/17 11:38:19;;;;;;;4.03;2.60;;;;;;;14.28;28.55;99574.66;6279029;22;20163;-78
2023/03/17 11:41:11;;;;;;;3.70;2.60;;;;;;;14.41;28.17;99574.41;6279787;22;20552;-78
2023/03/17 11:43:53;;;;;;;3.70;2.80;;;;;;;14.59;28.98;99557.16;6213127;22;20168;-79
2023/03/17 11:46:33;;;;;;;4.47;3.00;;;;;;;14.58;29.63;99556.31;6254479;22;20160;-78
2023/03/17 11:49:27;;;;;;;4.30;3.10;;;;;;;14.61;29.09;99555.00;6230732;22;20166;-79
2023/03/17 11:52:20;;;;;;;5.13;2.97;;;;;;;14.80;30.18;99543.69;6279907;22;20152;-79
2023/03/17 11:54:58;;;;;;;5.03;2.97;;;;;;;14.98;30.23;99542.56;6279496;22;20267;-79
2023/03/17 11:57:39;;;;;;;4.33;2.80;;;;;;;14.99;31.29;99536.94;6279486;22;20153;-77
2023/03/17 12:00:33;;;;;;;4.03;2.70;;;;;;;14.74;28.30;99517.75;6279106;22;20205;-79